sensor_id;sensor_type;location;lat;lon;timestamp;temperature;humidity
1506;DHT22;744;51.436;7.356;2023-07-16T00:02:02;23.10;46.00
1506;DHT22;744;51.436;7.356;2023-07-16T00:04:30;23.00;46.30
1506;DHT22;744;51.436;7.356;2023-07-16T00:06:57;23.00;46.40
1506;DHT22;744;51.436;7.356;2023-07-16T00:09:23;23.00;46.40
1506;DHT22;744;51.436;7.356;2023-07-16T00:11:50;23.00;46.40
1506;DHT22;744;51.436;7.356;2023-07-16T00:14:17;22.90;46.60
1506;DHT22;744;51.436;7.356;2023-07-16T00:16:44;23.00;46.60
1506;DHT22;744;51.436;7.356;2023-07-16T00:19:11;23.00;46.70
1506;DHT22;744;51.436;7.356;2023-07-16T00:21:39;23.00;46.40
1506;DHT22;744;51.436;7.356;2023-07-16T00:24:05;23.10;46.60
1506;DHT22;744;51.436;7.356;2023-07-16T00:26:32;23.10;46.30
1506;DHT22;744;51.436;7.356;2023-07-16T00:28:59;23.10;46.50
1506;DHT22;744;51.436;7.356;2023-07-16T00:31:26;23.10;46.30
1506;DHT22;744;51.436;7.356;2023-07-16T00:33:53;23.00;47.00
1506;DHT22;744;51.436;7.356;2023-07-16T00:36:20;22.90;46.60
1506;DHT22;744;51.436;7.356;2023-07-16T00:38:47;22.90;46.70
1506;DHT22;744;51.436;7.356;2023-07-16T00:41:14;22.90;46.70
1506;DHT22;744;51.436;7.356;2023-07-16T00:43:41;22.90;46.70
1506;DHT22;744;51.436;7.356;2023-07-16T00:46:08;22.90;46.70
1506;DHT22;744;51.436;7.356;2023-07-16T00:48:35;23.00;46.50
1506;DHT22;744;51.436;7.356;2023-07-16T00:51:03;23.00;46.60
1506;DHT22;744;51.436;7.356;2023-07-16T00:53:30;22.90;46.90
1506;DHT22;744;51.436;7.356;2023-07-16T00:55:57;22.80;46.90
1506;DHT22;744;51.436;7.356;2023-07-16T00:58:24;22.80;46.70
1506;DHT22;744;51.436;7.356;2023-07-16T01:00:51;22.70;47.00
1506;DHT22;744;51.436;7.356;2023-07-16T01:03:18;22.70;46.80
1506;DHT22;744;51.436;7.356;2023-07-16T01:05:55;22.80;47.40
1506;DHT22;744;51.436;7.356;2023-07-16T01:08:45;22.80;46.90
1506;DHT22;744;51.436;7.356;2023-07-16T01:11:13;22.90;46.70
1506;DHT22;744;51.436;7.356;2023-07-16T01:13:43;22.90;46.50
1506;DHT22;744;51.436;7.356;2023-07-16T01:16:21;22.90;46.30
1506;DHT22;744;51.436;7.356;2023-07-16T01:18:48;22.90;46.40
1506;DHT22;744;51.436;7.356;2023-07-16T01:21:16;22.80;46.60
1506;DHT22;744;51.436;7.356;2023-07-16T01:32:03;22.80;46.20
1506;DHT22;744;51.436;7.356;2023-07-16T01:34:32;22.60;46.40
1506;DHT22;744;51.436;7.356;2023-07-16T01:37:01;22.60;46.50
1506;DHT22;744;51.436;7.356;2023-07-16T01:39:30;22.60;46.40
1506;DHT22;744;51.436;7.356;2023-07-16T01:41:57;22.60;46.20
1506;DHT22;744;51.436;7.356;2023-07-16T01:44:24;22.60;46.30
1506;DHT22;744;51.436;7.356;2023-07-16T01:49:39;22.60;46.40
1506;DHT22;744;51.436;7.356;2023-07-16T01:52:07;22.60;46.40
1506;DHT22;744;51.436;7.356;2023-07-16T01:54:34;22.70;46.40
1506;DHT22;744;51.436;7.356;2023-07-16T01:57:01;22.60;46.20
1506;DHT22;744;51.436;7.356;2023-07-16T01:59:28;22.60;46.20
1506;DHT22;744;51.436;7.356;2023-07-16T02:01:55;22.60;46.10
1506;DHT22;744;51.436;7.356;2023-07-16T02:04:22;22.50;46.10
1506;DHT22;744;51.436;7.356;2023-07-16T02:06:49;22.50;46.30
1506;DHT22;744;51.436;7.356;2023-07-16T02:09:15;22.50;46.20
1506;DHT22;744;51.436;7.356;2023-07-16T02:11:42;22.50;46.20
1506;DHT22;744;51.436;7.356;2023-07-16T02:14:09;22.50;46.20
1506;DHT22;744;51.436;7.356;2023-07-16T02:16:36;22.50;46.30
1506;DHT22;744;51.436;7.356;2023-07-16T02:19:03;22.50;46.40
1506;DHT22;744;51.436;7.356;2023-07-16T02:21:30;22.60;46.30
1506;DHT22;744;51.436;7.356;2023-07-16T02:23:57;22.60;46.30
1506;DHT22;744;51.436;7.356;2023-07-16T02:26:24;22.60;46.20
1506;DHT22;744;51.436;7.356;2023-07-16T02:28:50;22.50;46.60
1506;DHT22;744;51.436;7.356;2023-07-16T02:31:17;22.50;46.70
1506;DHT22;744;51.436;7.356;2023-07-16T02:33:44;22.40;46.70
1506;DHT22;744;51.436;7.356;2023-07-16T02:36:11;22.40;46.80
1506;DHT22;744;51.436;7.356;2023-07-16T02:38:38;22.50;47.00
1506;DHT22;744;51.436;7.356;2023-07-16T02:41:05;22.50;46.90
1506;DHT22;744;51.436;7.356;2023-07-16T02:43:32;22.50;47.00
1506;DHT22;744;51.436;7.356;2023-07-16T02:45:58;22.50;47.10
1506;DHT22;744;51.436;7.356;2023-07-16T02:48:25;22.50;47.10
1506;DHT22;744;51.436;7.356;2023-07-16T02:50:52;22.40;47.00
1506;DHT22;744;51.436;7.356;2023-07-16T02:53:19;22.40;47.20
1506;DHT22;744;51.436;7.356;2023-07-16T02:55:46;22.40;47.20
1506;DHT22;744;51.436;7.356;2023-07-16T02:58:13;22.30;47.40
1506;DHT22;744;51.436;7.356;2023-07-16T03:00:40;22.40;47.10
1506;DHT22;744;51.436;7.356;2023-07-16T03:03:07;22.20;47.20
1506;DHT22;744;51.436;7.356;2023-07-16T03:05:34;22.10;47.50
1506;DHT22;744;51.436;7.356;2023-07-16T03:08:00;22.10;47.50
1506;DHT22;744;51.436;7.356;2023-07-16T03:10:27;22.00;47.70
1506;DHT22;744;51.436;7.356;2023-07-16T03:12:55;22.00;47.50
1506;DHT22;744;51.436;7.356;2023-07-16T03:15:21;22.00;47.50
1506;DHT22;744;51.436;7.356;2023-07-16T03:17:48;22.00;47.00
1506;DHT22;744;51.436;7.356;2023-07-16T03:20:15;21.90;47.30
1506;DHT22;744;51.436;7.356;2023-07-16T03:22:42;21.90;47.30
1506;DHT22;744;51.436;7.356;2023-07-16T03:25:09;21.90;47.10
1506;DHT22;744;51.436;7.356;2023-07-16T03:27:36;21.90;46.70
1506;DHT22;744;51.436;7.356;2023-07-16T03:30:03;21.80;46.70
1506;DHT22;744;51.436;7.356;2023-07-16T03:32:31;21.90;46.70
1506;DHT22;744;51.436;7.356;2023-07-16T03:35:17;21.80;46.40
1506;DHT22;744;51.436;7.356;2023-07-16T03:37:44;21.80;46.10
1506;DHT22;744;51.436;7.356;2023-07-16T03:40:16;21.70;46.10
1506;DHT22;744;51.436;7.356;2023-07-16T03:42:43;21.70;46.00
1506;DHT22;744;51.436;7.356;2023-07-16T03:45:11;21.70;46.00
1506;DHT22;744;51.436;7.356;2023-07-16T03:47:37;21.80;45.80
1506;DHT22;744;51.436;7.356;2023-07-16T03:50:05;21.70;45.30
1506;DHT22;744;51.436;7.356;2023-07-16T03:52:32;21.70;45.30
1506;DHT22;744;51.436;7.356;2023-07-16T03:54:59;21.70;45.10
1506;DHT22;744;51.436;7.356;2023-07-16T03:57:28;21.70;44.90
1506;DHT22;744;51.436;7.356;2023-07-16T03:59:55;21.70;44.60
1506;DHT22;744;51.436;7.356;2023-07-16T04:02:24;21.70;44.50
1506;DHT22;744;51.436;7.356;2023-07-16T04:04:51;21.60;44.40
1506;DHT22;744;51.436;7.356;2023-07-16T04:07:18;21.70;44.00
1506;DHT22;744;51.436;7.356;2023-07-16T04:09:45;21.60;43.90
1506;DHT22;744;51.436;7.356;2023-07-16T04:12:12;21.50;43.80
1506;DHT22;744;51.436;7.356;2023-07-16T04:14:39;21.50;43.70
1506;DHT22;744;51.436;7.356;2023-07-16T04:17:05;21.60;43.60
1506;DHT22;744;51.436;7.356;2023-07-16T04:19:32;21.50;43.70
1506;DHT22;744;51.436;7.356;2023-07-16T04:21:59;21.50;43.70
1506;DHT22;744;51.436;7.356;2023-07-16T04:24:26;21.60;43.60
1506;DHT22;744;51.436;7.356;2023-07-16T04:26:54;21.60;43.70
1506;DHT22;744;51.436;7.356;2023-07-16T04:29:21;21.60;43.60
1506;DHT22;744;51.436;7.356;2023-07-16T04:31:48;21.60;43.30
1506;DHT22;744;51.436;7.356;2023-07-16T04:34:14;21.60;43.40
1506;DHT22;744;51.436;7.356;2023-07-16T04:36:44;21.70;43.30
1506;DHT22;744;51.436;7.356;2023-07-16T04:39:11;21.80;42.90
1506;DHT22;744;51.436;7.356;2023-07-16T04:41:38;21.70;42.60
1506;DHT22;744;51.436;7.356;2023-07-16T04:44:05;21.70;42.70
1506;DHT22;744;51.436;7.356;2023-07-16T04:46:32;21.60;42.60
1506;DHT22;744;51.436;7.356;2023-07-16T04:49:01;21.60;42.50
1506;DHT22;744;51.436;7.356;2023-07-16T04:51:28;21.50;42.20
1506;DHT22;744;51.436;7.356;2023-07-16T04:53:55;21.50;42.30
1506;DHT22;744;51.436;7.356;2023-07-16T04:56:22;21.50;42.10
1506;DHT22;744;51.436;7.356;2023-07-16T04:58:49;21.50;42.10
1506;DHT22;744;51.436;7.356;2023-07-16T05:01:15;21.60;42.20
1506;DHT22;744;51.436;7.356;2023-07-16T05:03:42;21.50;41.90
1506;DHT22;744;51.436;7.356;2023-07-16T05:06:09;21.60;41.60
1506;DHT22;744;51.436;7.356;2023-07-16T05:08:36;21.50;41.80
1506;DHT22;744;51.436;7.356;2023-07-16T05:11:03;21.50;41.70
1506;DHT22;744;51.436;7.356;2023-07-16T05:13:30;21.60;41.70
1506;DHT22;744;51.436;7.356;2023-07-16T05:15:57;21.60;41.50
1506;DHT22;744;51.436;7.356;2023-07-16T05:18:24;21.50;41.30
1506;DHT22;744;51.436;7.356;2023-07-16T05:20:50;21.50;41.40
1506;DHT22;744;51.436;7.356;2023-07-16T05:23:17;21.60;41.50
1506;DHT22;744;51.436;7.356;2023-07-16T05:25:48;21.60;41.30
1506;DHT22;744;51.436;7.356;2023-07-16T05:28:16;21.50;41.20
1506;DHT22;744;51.436;7.356;2023-07-16T05:30:43;21.50;41.20
1506;DHT22;744;51.436;7.356;2023-07-16T05:33:10;21.50;41.30
1506;DHT22;744;51.436;7.356;2023-07-16T05:35:39;21.50;41.30
1506;DHT22;744;51.436;7.356;2023-07-16T05:38:05;21.50;41.30
1506;DHT22;744;51.436;7.356;2023-07-16T05:40:33;21.40;41.40
1506;DHT22;744;51.436;7.356;2023-07-16T05:42:59;21.40;41.60
1506;DHT22;744;51.436;7.356;2023-07-16T05:45:26;21.40;41.20
1506;DHT22;744;51.436;7.356;2023-07-16T05:47:53;21.50;41.40
1506;DHT22;744;51.436;7.356;2023-07-16T05:50:20;21.50;41.10
1506;DHT22;744;51.436;7.356;2023-07-16T05:52:47;21.50;41.20
1506;DHT22;744;51.436;7.356;2023-07-16T05:55:15;21.60;41.10
1506;DHT22;744;51.436;7.356;2023-07-16T05:57:42;21.60;41.00
1506;DHT22;744;51.436;7.356;2023-07-16T06:00:09;21.60;40.60
1506;DHT22;744;51.436;7.356;2023-07-16T06:02:37;21.70;40.80
1506;DHT22;744;51.436;7.356;2023-07-16T06:05:04;21.60;40.50
1506;DHT22;744;51.436;7.356;2023-07-16T06:07:32;21.60;40.60
1506;DHT22;744;51.436;7.356;2023-07-16T06:09:59;21.60;40.30
1506;DHT22;744;51.436;7.356;2023-07-16T06:12:26;21.60;40.20
1506;DHT22;744;51.436;7.356;2023-07-16T06:14:53;21.50;39.50
1506;DHT22;744;51.436;7.356;2023-07-16T06:17:20;21.50;39.60
1506;DHT22;744;51.436;7.356;2023-07-16T06:19:47;21.50;39.60
1506;DHT22;744;51.436;7.356;2023-07-16T06:22:17;21.60;39.30
1506;DHT22;744;51.436;7.356;2023-07-16T06:24:43;21.60;39.40
1506;DHT22;744;51.436;7.356;2023-07-16T06:27:10;21.70;39.50
1506;DHT22;744;51.436;7.356;2023-07-16T06:29:37;21.70;39.30
1506;DHT22;744;51.436;7.356;2023-07-16T06:32:04;21.60;39.20
1506;DHT22;744;51.436;7.356;2023-07-16T06:34:32;21.50;39.10
1506;DHT22;744;51.436;7.356;2023-07-16T06:36:58;21.60;39.20
1506;DHT22;744;51.436;7.356;2023-07-16T06:39:25;21.70;39.30
1506;DHT22;744;51.436;7.356;2023-07-16T06:41:52;21.70;39.30
1506;DHT22;744;51.436;7.356;2023-07-16T06:44:21;21.70;39.30
1506;DHT22;744;51.436;7.356;2023-07-16T06:46:48;21.70;39.30
1506;DHT22;744;51.436;7.356;2023-07-16T06:49:15;21.60;38.80
1506;DHT22;744;51.436;7.356;2023-07-16T06:51:41;21.70;38.90
1506;DHT22;744;51.436;7.356;2023-07-16T06:54:08;21.70;39.60
1506;DHT22;744;51.436;7.356;2023-07-16T06:56:35;21.70;39.30
1506;DHT22;744;51.436;7.356;2023-07-16T06:59:02;21.80;39.40
1506;DHT22;744;51.436;7.356;2023-07-16T07:01:29;21.80;38.80
1506;DHT22;744;51.436;7.356;2023-07-16T07:03:56;21.90;38.90
1506;DHT22;744;51.436;7.356;2023-07-16T07:06:23;21.80;38.60
1506;DHT22;744;51.436;7.356;2023-07-16T07:08:51;22.00;39.10
1506;DHT22;744;51.436;7.356;2023-07-16T07:11:18;22.00;38.50
1506;DHT22;744;51.436;7.356;2023-07-16T07:13:45;22.00;38.30
1506;DHT22;744;51.436;7.356;2023-07-16T07:16:12;22.10;38.30
1506;DHT22;744;51.436;7.356;2023-07-16T07:18:40;22.10;37.80
1506;DHT22;744;51.436;7.356;2023-07-16T07:21:06;22.10;37.80
1506;DHT22;744;51.436;7.356;2023-07-16T07:23:33;22.10;37.80
1506;DHT22;744;51.436;7.356;2023-07-16T07:26:00;22.20;37.50
1506;DHT22;744;51.436;7.356;2023-07-16T07:28:27;22.20;37.30
1506;DHT22;744;51.436;7.356;2023-07-16T07:30:55;22.20;37.20
1506;DHT22;744;51.436;7.356;2023-07-16T07:33:22;22.30;37.20
1506;DHT22;744;51.436;7.356;2023-07-16T07:35:49;22.40;37.20
1506;DHT22;744;51.436;7.356;2023-07-16T07:38:15;22.50;36.90
1506;DHT22;744;51.436;7.356;2023-07-16T07:40:43;22.60;37.00
1506;DHT22;744;51.436;7.356;2023-07-16T07:43:10;22.60;36.50
1506;DHT22;744;51.436;7.356;2023-07-16T07:45:37;22.50;36.10
1506;DHT22;744;51.436;7.356;2023-07-16T07:48:04;22.50;36.40
1506;DHT22;744;51.436;7.356;2023-07-16T07:50:31;22.50;36.50
1506;DHT22;744;51.436;7.356;2023-07-16T07:52:58;22.40;36.10
1506;DHT22;744;51.436;7.356;2023-07-16T07:55:25;22.50;35.50
1506;DHT22;744;51.436;7.356;2023-07-16T07:57:52;22.40;35.50
1506;DHT22;744;51.436;7.356;2023-07-16T08:00:20;22.40;35.30
1506;DHT22;744;51.436;7.356;2023-07-16T08:02:47;22.40;35.20
1506;DHT22;744;51.436;7.356;2023-07-16T08:05:14;22.40;35.30
1506;DHT22;744;51.436;7.356;2023-07-16T08:07:41;22.30;34.80
1506;DHT22;744;51.436;7.356;2023-07-16T08:10:08;22.30;35.10
1506;DHT22;744;51.436;7.356;2023-07-16T08:12:35;22.40;35.00
1506;DHT22;744;51.436;7.356;2023-07-16T08:15:02;22.50;34.80
1506;DHT22;744;51.436;7.356;2023-07-16T08:17:30;22.50;34.50
1506;DHT22;744;51.436;7.356;2023-07-16T08:19:58;22.50;35.00
1506;DHT22;744;51.436;7.356;2023-07-16T08:22:25;22.70;35.40
1506;DHT22;744;51.436;7.356;2023-07-16T08:24:52;22.80;34.50
1506;DHT22;744;51.436;7.356;2023-07-16T08:27:18;22.80;34.00
1506;DHT22;744;51.436;7.356;2023-07-16T08:29:46;22.70;34.10
1506;DHT22;744;51.436;7.356;2023-07-16T08:32:13;22.90;34.00
1506;DHT22;744;51.436;7.356;2023-07-16T08:34:39;22.90;33.50
1506;DHT22;744;51.436;7.356;2023-07-16T08:37:06;22.90;33.80
1506;DHT22;744;51.436;7.356;2023-07-16T08:39:33;23.00;33.70
1506;DHT22;744;51.436;7.356;2023-07-16T08:42:01;22.90;33.60
1506;DHT22;744;51.436;7.356;2023-07-16T08:44:29;22.90;33.50
1506;DHT22;744;51.436;7.356;2023-07-16T08:46:57;22.90;34.20
1506;DHT22;744;51.436;7.356;2023-07-16T08:49:26;23.00;33.80
1506;DHT22;744;51.436;7.356;2023-07-16T08:51:56;23.10;33.80
1506;DHT22;744;51.436;7.356;2023-07-16T08:54:23;23.10;33.40
1506;DHT22;744;51.436;7.356;2023-07-16T08:56:52;23.00;33.10
1506;DHT22;744;51.436;7.356;2023-07-16T08:59:20;23.00;33.00
1506;DHT22;744;51.436;7.356;2023-07-16T09:01:48;23.00;33.30
1506;DHT22;744;51.436;7.356;2023-07-16T09:04:16;23.20;33.60
1506;DHT22;744;51.436;7.356;2023-07-16T09:06:43;23.30;33.50
1506;DHT22;744;51.436;7.356;2023-07-16T09:09:21;23.40;32.60
1506;DHT22;744;51.436;7.356;2023-07-16T09:11:49;23.30;32.40
1506;DHT22;744;51.436;7.356;2023-07-16T09:14:19;23.30;32.60
1506;DHT22;744;51.436;7.356;2023-07-16T09:16:53;23.40;33.30
1506;DHT22;744;51.436;7.356;2023-07-16T09:19:21;23.50;32.40
1506;DHT22;744;51.436;7.356;2023-07-16T09:21:49;23.50;31.80
1506;DHT22;744;51.436;7.356;2023-07-16T09:24:17;23.50;31.60
1506;DHT22;744;51.436;7.356;2023-07-16T09:26:51;23.50;31.50
1506;DHT22;744;51.436;7.356;2023-07-16T09:29:19;23.50;32.10
1506;DHT22;744;51.436;7.356;2023-07-16T09:32:00;23.50;31.40
1506;DHT22;744;51.436;7.356;2023-07-16T09:34:29;23.60;31.50
1506;DHT22;744;51.436;7.356;2023-07-16T09:37:00;23.50;31.40
1506;DHT22;744;51.436;7.356;2023-07-16T09:39:28;23.40;31.00
1506;DHT22;744;51.436;7.356;2023-07-16T09:41:55;23.40;31.30
1506;DHT22;744;51.436;7.356;2023-07-16T09:44:24;23.50;31.00
1506;DHT22;744;51.436;7.356;2023-07-16T09:46:51;23.50;31.00
1506;DHT22;744;51.436;7.356;2023-07-16T09:49:18;23.60;30.60
1506;DHT22;744;51.436;7.356;2023-07-16T09:51:45;23.60;31.00
1506;DHT22;744;51.436;7.356;2023-07-16T09:54:14;23.80;31.70
1506;DHT22;744;51.436;7.356;2023-07-16T09:56:45;23.90;30.70
1506;DHT22;744;51.436;7.356;2023-07-16T09:59:14;23.90;30.40
1506;DHT22;744;51.436;7.356;2023-07-16T10:01:42;24.10;30.40
1506;DHT22;744;51.436;7.356;2023-07-16T10:04:17;24.30;30.40
1506;DHT22;744;51.436;7.356;2023-07-16T10:06:59;24.40;30.60
1506;DHT22;744;51.436;7.356;2023-07-16T10:09:41;24.50;30.40
1506;DHT22;744;51.436;7.356;2023-07-16T10:14:45;24.70;29.90
1506;DHT22;744;51.436;7.356;2023-07-16T10:22:34;24.90;29.50
1506;DHT22;744;51.436;7.356;2023-07-16T10:27:50;25.10;28.80
1506;DHT22;744;51.436;7.356;2023-07-16T10:30:17;25.10;29.00
1506;DHT22;744;51.436;7.356;2023-07-16T10:32:44;25.30;29.70
1506;DHT22;744;51.436;7.356;2023-07-16T10:35:12;25.30;29.20
1506;DHT22;744;51.436;7.356;2023-07-16T10:37:39;25.30;28.60
1506;DHT22;744;51.436;7.356;2023-07-16T10:40:11;25.20;28.60
1506;DHT22;744;51.436;7.356;2023-07-16T10:42:41;25.30;28.90
1506;DHT22;744;51.436;7.356;2023-07-16T10:45:10;25.30;28.90
1506;DHT22;744;51.436;7.356;2023-07-16T10:47:39;25.30;28.80
1506;DHT22;744;51.436;7.356;2023-07-16T10:50:08;25.40;29.10
1506;DHT22;744;51.436;7.356;2023-07-16T10:52:36;25.30;28.60
1506;DHT22;744;51.436;7.356;2023-07-16T10:55:04;25.30;28.60
1506;DHT22;744;51.436;7.356;2023-07-16T10:57:31;25.30;29.00
1506;DHT22;744;51.436;7.356;2023-07-16T10:59:59;25.40;28.80
1506;DHT22;744;51.436;7.356;2023-07-16T11:02:26;25.50;28.70
1506;DHT22;744;51.436;7.356;2023-07-16T11:04:54;25.50;28.70
1506;DHT22;744;51.436;7.356;2023-07-16T11:07:21;25.40;28.70
1506;DHT22;744;51.436;7.356;2023-07-16T11:09:49;25.30;28.60
1506;DHT22;744;51.436;7.356;2023-07-16T11:12:21;25.30;28.60
1506;DHT22;744;51.436;7.356;2023-07-16T11:14:56;25.30;28.60
1506;DHT22;744;51.436;7.356;2023-07-16T11:17:24;25.30;28.60
1506;DHT22;744;51.436;7.356;2023-07-16T11:19:55;25.30;28.60
1506;DHT22;744;51.436;7.356;2023-07-16T11:22:28;25.20;28.60
1506;DHT22;744;51.436;7.356;2023-07-16T11:24:55;25.30;28.60
1506;DHT22;744;51.436;7.356;2023-07-16T11:27:24;25.30;28.60
1506;DHT22;744;51.436;7.356;2023-07-16T11:29:56;25.30;28.60
1506;DHT22;744;51.436;7.356;2023-07-16T11:34:55;25.20;28.80
1506;DHT22;744;51.436;7.356;2023-07-16T11:37:24;25.40;28.70
1506;DHT22;744;51.436;7.356;2023-07-16T11:40:04;25.50;28.70
1506;DHT22;744;51.436;7.356;2023-07-16T11:42:39;25.50;28.70
1506;DHT22;744;51.436;7.356;2023-07-16T11:45:15;25.50;28.70
1506;DHT22;744;51.436;7.356;2023-07-16T11:47:43;25.60;28.80
1506;DHT22;744;51.436;7.356;2023-07-16T11:50:11;25.60;28.80
1506;DHT22;744;51.436;7.356;2023-07-16T11:52:38;25.60;28.70
1506;DHT22;744;51.436;7.356;2023-07-16T11:55:06;25.60;28.70
1506;DHT22;744;51.436;7.356;2023-07-16T11:57:34;25.70;28.80
1506;DHT22;744;51.436;7.356;2023-07-16T12:00:02;25.70;28.70
1506;DHT22;744;51.436;7.356;2023-07-16T12:02:29;25.70;28.90
1506;DHT22;744;51.436;7.356;2023-07-16T12:04:57;25.70;28.40
1506;DHT22;744;51.436;7.356;2023-07-16T12:07:35;25.60;28.40
1506;DHT22;744;51.436;7.356;2023-07-16T12:10:03;25.70;28.80
1506;DHT22;744;51.436;7.356;2023-07-16T12:12:31;25.70;28.90
1506;DHT22;744;51.436;7.356;2023-07-16T12:14:59;25.60;28.50
1506;DHT22;744;51.436;7.356;2023-07-16T12:17:26;25.70;28.70
1506;DHT22;744;51.436;7.356;2023-07-16T12:19:53;25.80;28.50
1506;DHT22;744;51.436;7.356;2023-07-16T12:22:20;25.80;28.10
1506;DHT22;744;51.436;7.356;2023-07-16T12:24:47;25.80;28.20
1506;DHT22;744;51.436;7.356;2023-07-16T12:27:15;25.70;28.10
1506;DHT22;744;51.436;7.356;2023-07-16T12:29:45;25.70;28.40
1506;DHT22;744;51.436;7.356;2023-07-16T12:32:12;25.90;28.10
1506;DHT22;744;51.436;7.356;2023-07-16T12:34:39;25.90;28.10
1506;DHT22;744;51.436;7.356;2023-07-16T12:37:06;26.00;28.10
1506;DHT22;744;51.436;7.356;2023-07-16T12:39:36;25.90;27.80
1506;DHT22;744;51.436;7.356;2023-07-16T12:42:03;25.90;28.20
1506;DHT22;744;51.436;7.356;2023-07-16T12:44:31;25.90;27.60
1506;DHT22;744;51.436;7.356;2023-07-16T12:46:58;25.90;27.70
1506;DHT22;744;51.436;7.356;2023-07-16T12:49:25;26.00;27.70
1506;DHT22;744;51.436;7.356;2023-07-16T12:51:51;26.00;27.80
1506;DHT22;744;51.436;7.356;2023-07-16T12:54:18;26.20;27.70
1506;DHT22;744;51.436;7.356;2023-07-16T12:56:45;26.20;27.60
1506;DHT22;744;51.436;7.356;2023-07-16T12:59:12;26.10;27.60
1506;DHT22;744;51.436;7.356;2023-07-16T13:01:39;26.10;27.70
1506;DHT22;744;51.436;7.356;2023-07-16T13:04:06;26.20;27.50
1506;DHT22;744;51.436;7.356;2023-07-16T13:06:33;26.30;27.40
1506;DHT22;744;51.436;7.356;2023-07-16T13:09:00;26.20;27.50
1506;DHT22;744;51.436;7.356;2023-07-16T13:11:27;26.20;27.40
1506;DHT22;744;51.436;7.356;2023-07-16T13:13:54;26.10;28.10
1506;DHT22;744;51.436;7.356;2023-07-16T13:16:21;26.10;27.70
1506;DHT22;744;51.436;7.356;2023-07-16T13:18:47;26.10;27.70
1506;DHT22;744;51.436;7.356;2023-07-16T13:21:14;26.10;27.40
1506;DHT22;744;51.436;7.356;2023-07-16T13:23:41;26.20;27.60
1506;DHT22;744;51.436;7.356;2023-07-16T13:26:08;26.30;27.50
1506;DHT22;744;51.436;7.356;2023-07-16T13:28:35;26.20;27.50
1506;DHT22;744;51.436;7.356;2023-07-16T13:31:02;26.10;27.00
1506;DHT22;744;51.436;7.356;2023-07-16T13:33:29;26.10;27.20
1506;DHT22;744;51.436;7.356;2023-07-16T13:35:56;26.10;27.10
1506;DHT22;744;51.436;7.356;2023-07-16T13:38:23;26.10;27.30
1506;DHT22;744;51.436;7.356;2023-07-16T13:40:50;26.20;27.50
1506;DHT22;744;51.436;7.356;2023-07-16T13:43:17;26.40;27.50
1506;DHT22;744;51.436;7.356;2023-07-16T13:45:44;26.40;27.00
1506;DHT22;744;51.436;7.356;2023-07-16T13:48:11;26.40;26.90
1506;DHT22;744;51.436;7.356;2023-07-16T13:50:38;26.50;26.90
1506;DHT22;744;51.436;7.356;2023-07-16T13:53:05;26.40;26.50
1506;DHT22;744;51.436;7.356;2023-07-16T13:55:32;26.30;26.40
1506;DHT22;744;51.436;7.356;2023-07-16T13:57:58;26.20;26.30
1506;DHT22;744;51.436;7.356;2023-07-16T14:00:25;26.20;26.50
1506;DHT22;744;51.436;7.356;2023-07-16T14:02:52;26.40;26.60
1506;DHT22;744;51.436;7.356;2023-07-16T14:05:19;26.40;26.70
1506;DHT22;744;51.436;7.356;2023-07-16T14:07:47;26.50;26.40
1506;DHT22;744;51.436;7.356;2023-07-16T14:10:14;26.30;25.90
1506;DHT22;744;51.436;7.356;2023-07-16T14:12:41;26.20;26.10
1506;DHT22;744;51.436;7.356;2023-07-16T14:15:08;26.30;26.30
1506;DHT22;744;51.436;7.356;2023-07-16T14:17:35;26.50;26.20
1506;DHT22;744;51.436;7.356;2023-07-16T14:20:02;26.40;26.20
1506;DHT22;744;51.436;7.356;2023-07-16T14:22:30;26.30;26.10
1506;DHT22;744;51.436;7.356;2023-07-16T14:24:57;26.30;26.10
1506;DHT22;744;51.436;7.356;2023-07-16T14:27:24;26.20;26.20
1506;DHT22;744;51.436;7.356;2023-07-16T14:29:51;26.20;26.50
1506;DHT22;744;51.436;7.356;2023-07-16T14:32:33;26.20;26.40
1506;DHT22;744;51.436;7.356;2023-07-16T14:35:00;26.30;26.50
1506;DHT22;744;51.436;7.356;2023-07-16T14:37:27;26.40;26.60
1506;DHT22;744;51.436;7.356;2023-07-16T14:39:54;26.50;26.50
1506;DHT22;744;51.436;7.356;2023-07-16T14:42:21;26.50;26.40
1506;DHT22;744;51.436;7.356;2023-07-16T14:44:48;26.50;26.20
1506;DHT22;744;51.436;7.356;2023-07-16T14:47:15;26.60;26.20
1506;DHT22;744;51.436;7.356;2023-07-16T14:49:43;26.70;26.40
1506;DHT22;744;51.436;7.356;2023-07-16T14:52:10;26.80;26.50
1506;DHT22;744;51.436;7.356;2023-07-16T14:54:37;26.80;25.70
1506;DHT22;744;51.436;7.356;2023-07-16T14:57:04;26.70;25.70
1506;DHT22;744;51.436;7.356;2023-07-16T14:59:32;26.60;25.60
1506;DHT22;744;51.436;7.356;2023-07-16T15:02:01;26.70;25.80
1506;DHT22;744;51.436;7.356;2023-07-16T15:04:28;26.70;26.10
1506;DHT22;744;51.436;7.356;2023-07-16T15:06:54;26.80;27.10
1506;DHT22;744;51.436;7.356;2023-07-16T15:09:22;26.80;27.00
1506;DHT22;744;51.436;7.356;2023-07-16T15:11:50;26.80;27.20
1506;DHT22;744;51.436;7.356;2023-07-16T15:14:16;26.80;26.50
1506;DHT22;744;51.436;7.356;2023-07-16T15:16:43;26.90;26.70
1506;DHT22;744;51.436;7.356;2023-07-16T15:19:10;26.80;26.70
1506;DHT22;744;51.436;7.356;2023-07-16T15:21:38;26.90;26.80
1506;DHT22;744;51.436;7.356;2023-07-16T15:24:06;26.90;26.20
1506;DHT22;744;51.436;7.356;2023-07-16T15:26:33;26.80;26.50
1506;DHT22;744;51.436;7.356;2023-07-16T15:29:00;26.80;26.80
1506;DHT22;744;51.436;7.356;2023-07-16T15:31:27;26.80;27.10
1506;DHT22;744;51.436;7.356;2023-07-16T15:33:55;26.80;26.80
1506;DHT22;744;51.436;7.356;2023-07-16T15:36:24;26.90;26.60
1506;DHT22;744;51.436;7.356;2023-07-16T15:38:51;26.90;26.60
1506;DHT22;744;51.436;7.356;2023-07-16T15:41:19;26.80;26.50
1506;DHT22;744;51.436;7.356;2023-07-16T15:43:54;26.90;26.10
1506;DHT22;744;51.436;7.356;2023-07-16T15:46:21;26.80;25.60
1506;DHT22;744;51.436;7.356;2023-07-16T15:48:48;26.70;26.10
1506;DHT22;744;51.436;7.356;2023-07-16T15:51:15;26.80;26.10
1506;DHT22;744;51.436;7.356;2023-07-16T15:53:42;26.80;25.90
1506;DHT22;744;51.436;7.356;2023-07-16T15:56:10;26.80;25.80
1506;DHT22;744;51.436;7.356;2023-07-16T15:58:38;26.90;25.80
1506;DHT22;744;51.436;7.356;2023-07-16T16:01:06;26.90;25.60
1506;DHT22;744;51.436;7.356;2023-07-16T16:03:33;26.90;25.60
1506;DHT22;744;51.436;7.356;2023-07-16T16:06:00;26.80;25.80
1506;DHT22;744;51.436;7.356;2023-07-16T16:08:27;26.90;25.60
1506;DHT22;744;51.436;7.356;2023-07-16T16:10:54;26.90;25.60
1506;DHT22;744;51.436;7.356;2023-07-16T16:13:22;26.80;25.60
1506;DHT22;744;51.436;7.356;2023-07-16T16:15:50;26.70;25.80
1506;DHT22;744;51.436;7.356;2023-07-16T16:18:17;26.60;26.10
1506;DHT22;744;51.436;7.356;2023-07-16T16:20:46;26.70;26.20
1506;DHT22;744;51.436;7.356;2023-07-16T16:23:14;26.70;26.20
1506;DHT22;744;51.436;7.356;2023-07-16T16:25:42;26.80;26.30
1506;DHT22;744;51.436;7.356;2023-07-16T16:28:09;27.00;26.20
1506;DHT22;744;51.436;7.356;2023-07-16T16:30:39;27.20;26.00
1506;DHT22;744;51.436;7.356;2023-07-16T16:33:07;27.30;25.80
1506;DHT22;744;51.436;7.356;2023-07-16T16:35:39;27.20;25.80
1506;DHT22;744;51.436;7.356;2023-07-16T16:38:08;27.20;25.80
1506;DHT22;744;51.436;7.356;2023-07-16T16:40:35;27.30;25.90
1506;DHT22;744;51.436;7.356;2023-07-16T16:43:03;27.20;25.80
1506;DHT22;744;51.436;7.356;2023-07-16T16:45:30;27.10;25.80